sensor_id;sensor_type;location;lat;lon;timestamp;temperature;humidity
20483;DHT22;10400;53.198;6.592;2022-09-09T00:06:46;15.80;99.90
20483;DHT22;10400;53.198;6.592;2022-09-09T00:09:18;15.70;99.90
20483;DHT22;10400;53.198;6.592;2022-09-09T00:22:40;15.60;99.90
20483;DHT22;10400;53.198;6.592;2022-09-09T00:25:14;15.60;99.90
20483;DHT22;10400;53.198;6.592;2022-09-09T00:27:48;15.50;99.90
20483;DHT22;10400;53.198;6.592;2022-09-09T00:32:41;15.60;99.90
20483;DHT22;10400;53.198;6.592;2022-09-09T00:35:33;15.50;99.90
20483;DHT22;10400;53.198;6.592;2022-09-09T00:38:16;15.50;99.90
20483;DHT22;10400;53.198;6.592;2022-09-09T00:40:50;15.50;99.90
20483;DHT22;10400;53.198;6.592;2022-09-09T00:43:35;15.40;99.90
20483;DHT22;10400;53.198;6.592;2022-09-09T00:57:31;15.30;99.90
20483;DHT22;10400;53.198;6.592;2022-09-09T01:03:18;15.30;99.90
20483;DHT22;10400;53.198;6.592;2022-09-09T01:08:22;15.20;99.90
20483;DHT22;10400;53.198;6.592;2022-09-09T01:10:54;15.20;99.90
20483;DHT22;10400;53.198;6.592;2022-09-09T01:13:31;15.20;99.90
20483;DHT22;10400;53.198;6.592;2022-09-09T01:16:00;15.20;99.90
20483;DHT22;10400;53.198;6.592;2022-09-09T01:18:46;15.20;99.90
20483;DHT22;10400;53.198;6.592;2022-09-09T01:21:38;15.10;99.90
20483;DHT22;10400;53.198;6.592;2022-09-09T01:26:44;15.20;99.90
20483;DHT22;10400;53.198;6.592;2022-09-09T01:29:13;15.10;99.90
20483;DHT22;10400;53.198;6.592;2022-09-09T01:34:14;15.00;99.90
20483;DHT22;10400;53.198;6.592;2022-09-09T01:36:57;15.00;99.90
20483;DHT22;10400;53.198;6.592;2022-09-09T01:39:23;15.00;99.90
20483;DHT22;10400;53.198;6.592;2022-09-09T01:41:49;15.00;99.90
20483;DHT22;10400;53.198;6.592;2022-09-09T01:44:16;15.00;99.90
20483;DHT22;10400;53.198;6.592;2022-09-09T01:46:43;15.00;99.90
20483;DHT22;10400;53.198;6.592;2022-09-09T01:49:09;14.90;99.90
20483;DHT22;10400;53.198;6.592;2022-09-09T01:51:36;14.90;99.90
20483;DHT22;10400;53.198;6.592;2022-09-09T01:54:05;14.90;99.90
20483;DHT22;10400;53.198;6.592;2022-09-09T02:02:17;14.90;99.90
20483;DHT22;10400;53.198;6.592;2022-09-09T02:04:47;14.90;99.90
20483;DHT22;10400;53.198;6.592;2022-09-09T02:09:48;14.90;99.90
20483;DHT22;10400;53.198;6.592;2022-09-09T02:12:18;14.90;99.90
20483;DHT22;10400;53.198;6.592;2022-09-09T02:14:52;14.90;99.90
20483;DHT22;10400;53.198;6.592;2022-09-09T02:17:27;14.90;99.90
20483;DHT22;10400;53.198;6.592;2022-09-09T02:20:07;14.90;99.90
20483;DHT22;10400;53.198;6.592;2022-09-09T02:22:35;14.90;99.90
20483;DHT22;10400;53.198;6.592;2022-09-09T02:25:07;14.80;99.90
20483;DHT22;10400;53.198;6.592;2022-09-09T02:27:34;14.80;99.90
20483;DHT22;10400;53.198;6.592;2022-09-09T02:30:02;14.90;99.90
20483;DHT22;10400;53.198;6.592;2022-09-09T02:32:28;14.80;99.90
20483;DHT22;10400;53.198;6.592;2022-09-09T02:35:00;14.90;99.90
20483;DHT22;10400;53.198;6.592;2022-09-09T02:37:32;14.90;99.90
20483;DHT22;10400;53.198;6.592;2022-09-09T02:40:02;14.90;99.90
20483;DHT22;10400;53.198;6.592;2022-09-09T02:42:28;14.90;99.90
20483;DHT22;10400;53.198;6.592;2022-09-09T02:44:53;14.80;99.90
20483;DHT22;10400;53.198;6.592;2022-09-09T02:47:27;14.90;99.90
20483;DHT22;10400;53.198;6.592;2022-09-09T02:55:07;15.00;99.90
20483;DHT22;10400;53.198;6.592;2022-09-09T02:57:37;15.00;99.90
20483;DHT22;10400;53.198;6.592;2022-09-09T03:00:03;14.90;99.90
20483;DHT22;10400;53.198;6.592;2022-09-09T03:02:29;15.00;99.90
20483;DHT22;10400;53.198;6.592;2022-09-09T03:04:55;15.00;99.90
20483;DHT22;10400;53.198;6.592;2022-09-09T03:07:21;15.00;99.90
20483;DHT22;10400;53.198;6.592;2022-09-09T03:09:47;15.10;99.90
20483;DHT22;10400;53.198;6.592;2022-09-09T03:12:13;15.10;99.90
20483;DHT22;10400;53.198;6.592;2022-09-09T03:14:38;15.20;99.90
20483;DHT22;10400;53.198;6.592;2022-09-09T03:17:07;15.10;99.90
20483;DHT22;10400;53.198;6.592;2022-09-09T03:19:34;15.10;99.90
20483;DHT22;10400;53.198;6.592;2022-09-09T03:22:00;15.10;99.90
20483;DHT22;10400;53.198;6.592;2022-09-09T03:24:26;15.20;99.90
20483;DHT22;10400;53.198;6.592;2022-09-09T03:26:52;15.20;99.90
20483;DHT22;10400;53.198;6.592;2022-09-09T03:29:18;15.20;99.90
20483;DHT22;10400;53.198;6.592;2022-09-09T03:31:44;15.20;99.90
20483;DHT22;10400;53.198;6.592;2022-09-09T03:34:10;15.20;99.90
20483;DHT22;10400;53.198;6.592;2022-09-09T03:36:36;15.30;99.90
20483;DHT22;10400;53.198;6.592;2022-09-09T03:39:02;15.20;99.90
20483;DHT22;10400;53.198;6.592;2022-09-09T03:41:29;15.30;99.90
20483;DHT22;10400;53.198;6.592;2022-09-09T03:43:54;15.30;99.90
20483;DHT22;10400;53.198;6.592;2022-09-09T03:46:22;15.30;99.90
20483;DHT22;10400;53.198;6.592;2022-09-09T03:48:47;15.30;99.90
20483;DHT22;10400;53.198;6.592;2022-09-09T03:51:13;15.30;99.90
20483;DHT22;10400;53.198;6.592;2022-09-09T03:53:41;15.30;99.90
20483;DHT22;10400;53.198;6.592;2022-09-09T03:56:07;15.40;99.90
20483;DHT22;10400;53.198;6.592;2022-09-09T03:58:34;15.40;99.90
20483;DHT22;10400;53.198;6.592;2022-09-09T04:01:02;15.40;99.90
20483;DHT22;10400;53.198;6.592;2022-09-09T04:03:29;15.40;99.90
20483;DHT22;10400;53.198;6.592;2022-09-09T04:05:56;15.40;99.90
20483;DHT22;10400;53.198;6.592;2022-09-09T04:08:22;15.50;99.90
20483;DHT22;10400;53.198;6.592;2022-09-09T04:10:51;15.50;99.90
20483;DHT22;10400;53.198;6.592;2022-09-09T04:13:17;15.50;99.90
20483;DHT22;10400;53.198;6.592;2022-09-09T04:15:54;15.50;99.90
20483;DHT22;10400;53.198;6.592;2022-09-09T04:18:20;15.50;99.90
20483;DHT22;10400;53.198;6.592;2022-09-09T04:20:47;15.50;99.90
20483;DHT22;10400;53.198;6.592;2022-09-09T04:23:14;15.50;99.90
20483;DHT22;10400;53.198;6.592;2022-09-09T04:25:44;15.50;99.90
20483;DHT22;10400;53.198;6.592;2022-09-09T04:28:10;15.50;99.90
20483;DHT22;10400;53.198;6.592;2022-09-09T04:30:36;15.50;99.90
20483;DHT22;10400;53.198;6.592;2022-09-09T04:33:01;15.50;99.90
20483;DHT22;10400;53.198;6.592;2022-09-09T04:35:27;15.50;99.90
20483;DHT22;10400;53.198;6.592;2022-09-09T04:37:52;15.50;99.90
20483;DHT22;10400;53.198;6.592;2022-09-09T04:40:18;15.50;99.90
20483;DHT22;10400;53.198;6.592;2022-09-09T04:42:44;15.50;99.90
20483;DHT22;10400;53.198;6.592;2022-09-09T04:45:09;15.50;99.90
20483;DHT22;10400;53.198;6.592;2022-09-09T04:47:36;15.50;99.90
20483;DHT22;10400;53.198;6.592;2022-09-09T04:50:02;15.50;99.90
20483;DHT22;10400;53.198;6.592;2022-09-09T04:52:28;15.50;99.90
20483;DHT22;10400;53.198;6.592;2022-09-09T04:54:54;15.40;99.90
20483;DHT22;10400;53.198;6.592;2022-09-09T04:57:19;15.50;99.90
20483;DHT22;10400;53.198;6.592;2022-09-09T04:59:45;15.50;99.90
20483;DHT22;10400;53.198;6.592;2022-09-09T05:02:11;15.50;99.90
20483;DHT22;10400;53.198;6.592;2022-09-09T05:04:37;15.50;99.90
20483;DHT22;10400;53.198;6.592;2022-09-09T05:07:02;15.40;99.90
20483;DHT22;10400;53.198;6.592;2022-09-09T05:09:28;15.40;99.90
20483;DHT22;10400;53.198;6.592;2022-09-09T05:11:54;15.40;99.90
20483;DHT22;10400;53.198;6.592;2022-09-09T05:14:21;15.40;99.90
20483;DHT22;10400;53.198;6.592;2022-09-09T05:16:47;15.40;99.90
20483;DHT22;10400;53.198;6.592;2022-09-09T05:19:15;15.40;99.90
20483;DHT22;10400;53.198;6.592;2022-09-09T05:21:40;15.40;99.90
20483;DHT22;10400;53.198;6.592;2022-09-09T05:24:07;15.40;99.90
20483;DHT22;10400;53.198;6.592;2022-09-09T05:26:32;15.40;99.90
20483;DHT22;10400;53.198;6.592;2022-09-09T05:28:58;15.40;99.90
20483;DHT22;10400;53.198;6.592;2022-09-09T05:31:26;15.40;99.90
20483;DHT22;10400;53.198;6.592;2022-09-09T05:33:52;15.40;99.90
20483;DHT22;10400;53.198;6.592;2022-09-09T05:36:20;15.40;99.90
20483;DHT22;10400;53.198;6.592;2022-09-09T05:38:46;15.30;99.90
20483;DHT22;10400;53.198;6.592;2022-09-09T05:41:13;15.30;99.90
20483;DHT22;10400;53.198;6.592;2022-09-09T05:43:41;15.30;99.90
20483;DHT22;10400;53.198;6.592;2022-09-09T05:46:19;15.30;99.90
20483;DHT22;10400;53.198;6.592;2022-09-09T05:48:46;15.40;99.90
20483;DHT22;10400;53.198;6.592;2022-09-09T05:51:15;15.40;99.90
20483;DHT22;10400;53.198;6.592;2022-09-09T05:53:44;15.40;99.90
20483;DHT22;10400;53.198;6.592;2022-09-09T05:56:15;15.40;99.90
20483;DHT22;10400;53.198;6.592;2022-09-09T05:58:42;15.40;99.90
20483;DHT22;10400;53.198;6.592;2022-09-09T06:01:14;15.30;99.90
20483;DHT22;10400;53.198;6.592;2022-09-09T06:03:42;15.40;99.90
20483;DHT22;10400;53.198;6.592;2022-09-09T06:06:11;15.40;99.90
20483;DHT22;10400;53.198;6.592;2022-09-09T06:08:38;15.40;99.90
20483;DHT22;10400;53.198;6.592;2022-09-09T06:11:06;15.40;99.90
20483;DHT22;10400;53.198;6.592;2022-09-09T06:13:32;15.40;99.90
20483;DHT22;10400;53.198;6.592;2022-09-09T06:15:59;15.40;99.90
20483;DHT22;10400;53.198;6.592;2022-09-09T06:18:25;15.50;99.90
20483;DHT22;10400;53.198;6.592;2022-09-09T06:20:59;15.50;99.90
20483;DHT22;10400;53.198;6.592;2022-09-09T06:23:26;15.50;99.90
20483;DHT22;10400;53.198;6.592;2022-09-09T06:26:10;15.50;99.90
20483;DHT22;10400;53.198;6.592;2022-09-09T06:28:36;15.50;99.90
20483;DHT22;10400;53.198;6.592;2022-09-09T06:31:05;15.50;99.90
20483;DHT22;10400;53.198;6.592;2022-09-09T06:33:32;15.50;99.90
20483;DHT22;10400;53.198;6.592;2022-09-09T06:36:00;15.60;99.90
20483;DHT22;10400;53.198;6.592;2022-09-09T06:38:26;15.60;99.90
20483;DHT22;10400;53.198;6.592;2022-09-09T06:40:56;15.70;99.90
20483;DHT22;10400;53.198;6.592;2022-09-09T06:43:23;15.60;99.90
20483;DHT22;10400;53.198;6.592;2022-09-09T06:45:54;15.70;99.90
20483;DHT22;10400;53.198;6.592;2022-09-09T06:48:19;15.70;99.90
20483;DHT22;10400;53.198;6.592;2022-09-09T06:50:45;15.90;99.90
20483;DHT22;10400;53.198;6.592;2022-09-09T06:53:11;15.70;99.90
20483;DHT22;10400;53.198;6.592;2022-09-09T06:55:37;15.90;99.90
20483;DHT22;10400;53.198;6.592;2022-09-09T06:58:08;15.90;99.90
20483;DHT22;10400;53.198;6.592;2022-09-09T07:00:33;16.00;99.90
20483;DHT22;10400;53.198;6.592;2022-09-09T07:02:59;16.00;99.90
20483;DHT22;10400;53.198;6.592;2022-09-09T07:05:25;16.10;99.90
20483;DHT22;10400;53.198;6.592;2022-09-09T07:07:51;16.10;99.90
20483;DHT22;10400;53.198;6.592;2022-09-09T07:10:17;16.20;99.90
20483;DHT22;10400;53.198;6.592;2022-09-09T07:12:43;16.10;99.90
20483;DHT22;10400;53.198;6.592;2022-09-09T07:15:09;16.20;99.90
20483;DHT22;10400;53.198;6.592;2022-09-09T07:17:35;16.10;99.90
20483;DHT22;10400;53.198;6.592;2022-09-09T07:20:01;16.20;99.90
20483;DHT22;10400;53.198;6.592;2022-09-09T07:22:28;16.20;99.90
20483;DHT22;10400;53.198;6.592;2022-09-09T07:24:54;16.30;99.90
20483;DHT22;10400;53.198;6.592;2022-09-09T07:27:19;16.30;99.90
20483;DHT22;10400;53.198;6.592;2022-09-09T07:29:45;16.40;99.90
20483;DHT22;10400;53.198;6.592;2022-09-09T07:32:11;16.30;99.90
20483;DHT22;10400;53.198;6.592;2022-09-09T07:34:36;16.40;99.90
20483;DHT22;10400;53.198;6.592;2022-09-09T07:37:02;16.40;99.90
20483;DHT22;10400;53.198;6.592;2022-09-09T07:39:28;16.50;99.90
20483;DHT22;10400;53.198;6.592;2022-09-09T07:41:54;16.60;99.90
20483;DHT22;10400;53.198;6.592;2022-09-09T07:44:24;16.70;99.90
20483;DHT22;10400;53.198;6.592;2022-09-09T07:46:52;16.80;99.90
20483;DHT22;10400;53.198;6.592;2022-09-09T07:49:18;16.90;99.90
20483;DHT22;10400;53.198;6.592;2022-09-09T07:51:46;16.80;99.90
20483;DHT22;10400;53.198;6.592;2022-09-09T07:54:14;16.90;99.90
20483;DHT22;10400;53.198;6.592;2022-09-09T07:56:41;17.00;99.90
20483;DHT22;10400;53.198;6.592;2022-09-09T07:59:07;17.00;99.90
20483;DHT22;10400;53.198;6.592;2022-09-09T08:01:41;17.20;99.90
20483;DHT22;10400;53.198;6.592;2022-09-09T08:04:16;17.20;99.90
20483;DHT22;10400;53.198;6.592;2022-09-09T08:06:48;17.20;99.90
20483;DHT22;10400;53.198;6.592;2022-09-09T08:09:14;17.20;99.90
20483;DHT22;10400;53.198;6.592;2022-09-09T08:11:40;17.30;99.90
20483;DHT22;10400;53.198;6.592;2022-09-09T08:14:08;17.50;99.90
20483;DHT22;10400;53.198;6.592;2022-09-09T08:16:36;17.40;99.90
20483;DHT22;10400;53.198;6.592;2022-09-09T08:19:03;17.60;99.90
20483;DHT22;10400;53.198;6.592;2022-09-09T08:21:30;17.70;99.90
20483;DHT22;10400;53.198;6.592;2022-09-09T08:23:58;17.80;99.90
20483;DHT22;10400;53.198;6.592;2022-09-09T08:26:45;17.90;99.90
20483;DHT22;10400;53.198;6.592;2022-09-09T08:29:12;18.00;99.90
20483;DHT22;10400;53.198;6.592;2022-09-09T08:31:41;18.10;99.90
20483;DHT22;10400;53.198;6.592;2022-09-09T08:34:08;18.30;99.90
20483;DHT22;10400;53.198;6.592;2022-09-09T08:36:42;18.50;99.90
20483;DHT22;10400;53.198;6.592;2022-09-09T08:39:10;18.70;99.90
20483;DHT22;10400;53.198;6.592;2022-09-09T08:42:17;18.70;99.90
20483;DHT22;10400;53.198;6.592;2022-09-09T08:44:59;18.70;99.90
20483;DHT22;10400;53.198;6.592;2022-09-09T08:58:33;18.70;99.90
20483;DHT22;10400;53.198;6.592;2022-09-09T09:09:16;18.80;99.90
20483;DHT22;10400;53.198;6.592;2022-09-09T09:14:24;18.80;99.90
20483;DHT22;10400;53.198;6.592;2022-09-09T09:17:06;18.80;99.90
20483;DHT22;10400;53.198;6.592;2022-09-09T09:19:35;18.80;99.90
20483;DHT22;10400;53.198;6.592;2022-09-09T09:28:03;18.90;99.90
20483;DHT22;10400;53.198;6.592;2022-09-09T09:30:39;19.20;99.90
20483;DHT22;10400;53.198;6.592;2022-09-09T09:35:39;19.20;99.90
20483;DHT22;10400;53.198;6.592;2022-09-09T09:38:26;19.40;99.90
20483;DHT22;10400;53.198;6.592;2022-09-09T09:40:55;19.60;99.90
20483;DHT22;10400;53.198;6.592;2022-09-09T09:43:37;19.80;99.90
20483;DHT22;10400;53.198;6.592;2022-09-09T09:46:05;19.80;99.90
20483;DHT22;10400;53.198;6.592;2022-09-09T09:48:43;19.80;99.90
20483;DHT22;10400;53.198;6.592;2022-09-09T09:51:13;19.80;99.90
20483;DHT22;10400;53.198;6.592;2022-09-09T09:53:41;19.80;99.90
20483;DHT22;10400;53.198;6.592;2022-09-09T09:56:10;19.80;99.90
20483;DHT22;10400;53.198;6.592;2022-09-09T10:01:26;19.70;99.90
20483;DHT22;10400;53.198;6.592;2022-09-09T10:03:57;19.80;99.90
20483;DHT22;10400;53.198;6.592;2022-09-09T10:06:33;19.80;99.90
20483;DHT22;10400;53.198;6.592;2022-09-09T10:09:00;19.90;99.90
20483;DHT22;10400;53.198;6.592;2022-09-09T10:14:22;19.80;99.90
20483;DHT22;10400;53.198;6.592;2022-09-09T10:17:16;19.90;99.90
20483;DHT22;10400;53.198;6.592;2022-09-09T10:26:18;19.70;99.90
20483;DHT22;10400;53.198;6.592;2022-09-09T10:36:53;19.50;99.90
20483;DHT22;10400;53.198;6.592;2022-09-09T10:39:30;19.50;99.90
20483;DHT22;10400;53.198;6.592;2022-09-09T10:42:07;19.40;99.90
20483;DHT22;10400;53.198;6.592;2022-09-09T10:50:29;19.30;99.90
20483;DHT22;10400;53.198;6.592;2022-09-09T10:53:05;19.30;99.90
20483;DHT22;10400;53.198;6.592;2022-09-09T10:55:43;19.30;99.90
20483;DHT22;10400;53.198;6.592;2022-09-09T10:58:18;19.50;99.90
20483;DHT22;10400;53.198;6.592;2022-09-09T11:00:49;20.00;99.90
20483;DHT22;10400;53.198;6.592;2022-09-09T11:03:28;20.10;99.90
20483;DHT22;10400;53.198;6.592;2022-09-09T11:06:10;20.20;99.90
20483;DHT22;10400;53.198;6.592;2022-09-09T11:08:38;20.30;99.90
20483;DHT22;10400;53.198;6.592;2022-09-09T11:11:39;20.50;99.90
20483;DHT22;10400;53.198;6.592;2022-09-09T11:16:57;20.50;99.90
20483;DHT22;10400;53.198;6.592;2022-09-09T11:19:40;20.60;99.90
20483;DHT22;10400;53.198;6.592;2022-09-09T11:22:29;20.80;99.90
20483;DHT22;10400;53.198;6.592;2022-09-09T11:25:05;21.10;99.90
20483;DHT22;10400;53.198;6.592;2022-09-09T11:38:28;21.10;99.90
20483;DHT22;10400;53.198;6.592;2022-09-09T11:41:00;21.10;99.90
20483;DHT22;10400;53.198;6.592;2022-09-09T11:43:30;21.30;99.90
20483;DHT22;10400;53.198;6.592;2022-09-09T11:45:59;21.20;99.90
20483;DHT22;10400;53.198;6.592;2022-09-09T11:48:35;21.00;99.90
20483;DHT22;10400;53.198;6.592;2022-09-09T11:51:08;20.80;99.90
20483;DHT22;10400;53.198;6.592;2022-09-09T11:53:36;20.70;99.90
20483;DHT22;10400;53.198;6.592;2022-09-09T11:56:22;20.50;99.90
20483;DHT22;10400;53.198;6.592;2022-09-09T11:59:06;20.60;99.90
20483;DHT22;10400;53.198;6.592;2022-09-09T12:01:45;20.90;99.90
20483;DHT22;10400;53.198;6.592;2022-09-09T12:19:40;21.30;99.90
20483;DHT22;10400;53.198;6.592;2022-09-09T12:25:23;21.20;99.90
20483;DHT22;10400;53.198;6.592;2022-09-09T12:30:47;21.30;99.90
20483;DHT22;10400;53.198;6.592;2022-09-09T12:33:18;21.30;99.90
20483;DHT22;10400;53.198;6.592;2022-09-09T12:35:47;21.10;99.90
20483;DHT22;10400;53.198;6.592;2022-09-09T12:38:22;20.80;99.90
20483;DHT22;10400;53.198;6.592;2022-09-09T12:40:55;20.90;99.90
20483;DHT22;10400;53.198;6.592;2022-09-09T12:43:23;20.80;99.90
20483;DHT22;10400;53.198;6.592;2022-09-09T12:45:55;20.90;99.90
20483;DHT22;10400;53.198;6.592;2022-09-09T12:48:31;21.10;99.90
20483;DHT22;10400;53.198;6.592;2022-09-09T12:50:58;21.20;99.90
20483;DHT22;10400;53.198;6.592;2022-09-09T12:53:34;21.30;99.90
20483;DHT22;10400;53.198;6.592;2022-09-09T12:56:03;21.20;99.90
20483;DHT22;10400;53.198;6.592;2022-09-09T12:58:31;21.40;99.90
20483;DHT22;10400;53.198;6.592;2022-09-09T13:01:01;21.30;99.90
20483;DHT22;10400;53.198;6.592;2022-09-09T13:03:31;21.30;99.90
20483;DHT22;10400;53.198;6.592;2022-09-09T13:06:09;21.60;99.90
20483;DHT22;10400;53.198;6.592;2022-09-09T13:08:35;21.70;99.90
20483;DHT22;10400;53.198;6.592;2022-09-09T13:11:04;21.80;99.90
20483;DHT22;10400;53.198;6.592;2022-09-09T13:13:37;21.90;99.90
20483;DHT22;10400;53.198;6.592;2022-09-09T13:16:05;21.90;99.90
20483;DHT22;10400;53.198;6.592;2022-09-09T13:18:35;22.10;99.90
20483;DHT22;10400;53.198;6.592;2022-09-09T13:21:01;22.10;99.90
20483;DHT22;10400;53.198;6.592;2022-09-09T13:23:30;22.10;99.90
20483;DHT22;10400;53.198;6.592;2022-09-09T13:25:58;22.20;99.90
20483;DHT22;10400;53.198;6.592;2022-09-09T13:28:27;22.10;99.90
20483;DHT22;10400;53.198;6.592;2022-09-09T13:30:57;21.90;99.90
20483;DHT22;10400;53.198;6.592;2022-09-09T13:33:31;21.90;99.90
20483;DHT22;10400;53.198;6.592;2022-09-09T13:35:59;22.10;99.90
20483;DHT22;10400;53.198;6.592;2022-09-09T13:38:28;22.40;99.90
20483;DHT22;10400;53.198;6.592;2022-09-09T13:40:57;22.40;99.90
20483;DHT22;10400;53.198;6.592;2022-09-09T13:43:28;22.30;99.90
20483;DHT22;10400;53.198;6.592;2022-09-09T13:45:55;22.10;99.90
20483;DHT22;10400;53.198;6.592;2022-09-09T13:48:22;22.00;99.90
20483;DHT22;10400;53.198;6.592;2022-09-09T13:51:02;21.70;99.90
20483;DHT22;10400;53.198;6.592;2022-09-09T13:53:30;21.40;99.90
20483;DHT22;10400;53.198;6.592;2022-09-09T13:55:57;21.20;99.90
20483;DHT22;10400;53.198;6.592;2022-09-09T13:58:24;21.10;99.90
20483;DHT22;10400;53.198;6.592;2022-09-09T14:00:52;21.40;99.90
20483;DHT22;10400;53.198;6.592;2022-09-09T14:03:18;21.50;99.90
20483;DHT22;10400;53.198;6.592;2022-09-09T14:05:44;21.80;99.90
20483;DHT22;10400;53.198;6.592;2022-09-09T14:08:20;22.10;99.90
20483;DHT22;10400;53.198;6.592;2022-09-09T14:10:47;22.20;99.90
20483;DHT22;10400;53.198;6.592;2022-09-09T14:13:12;22.20;99.90
20483;DHT22;10400;53.198;6.592;2022-09-09T14:15:38;22.00;99.90
20483;DHT22;10400;53.198;6.592;2022-09-09T14:18:04;21.80;99.90
20483;DHT22;10400;53.198;6.592;2022-09-09T14:20:30;21.60;99.90
20483;DHT22;10400;53.198;6.592;2022-09-09T14:22:55;21.40;99.90
20483;DHT22;10400;53.198;6.592;2022-09-09T14:25:23;21.30;99.90
20483;DHT22;10400;53.198;6.592;2022-09-09T14:27:48;21.40;99.90
20483;DHT22;10400;53.198;6.592;2022-09-09T14:30:16;21.40;99.90
20483;DHT22;10400;53.198;6.592;2022-09-09T14:32:42;21.50;99.90
20483;DHT22;10400;53.198;6.592;2022-09-09T14:35:08;21.60;99.90
20483;DHT22;10400;53.198;6.592;2022-09-09T14:37:34;21.50;99.90
20483;DHT22;10400;53.198;6.592;2022-09-09T14:40:00;21.40;99.90
20483;DHT22;10400;53.198;6.592;2022-09-09T14:42:25;21.30;99.90
20483;DHT22;10400;53.198;6.592;2022-09-09T14:44:52;21.20;99.90
20483;DHT22;10400;53.198;6.592;2022-09-09T14:47:18;21.00;99.90
20483;DHT22;10400;53.198;6.592;2022-09-09T14:49:43;20.90;99.90
20483;DHT22;10400;53.198;6.592;2022-09-09T14:52:11;20.80;99.90
20483;DHT22;10400;53.198;6.592;2022-09-09T14:54:36;20.40;99.90
20483;DHT22;10400;53.198;6.592;2022-09-09T14:57:02;20.30;99.90
20483;DHT22;10400;53.198;6.592;2022-09-09T14:59:28;20.30;99.90
20483;DHT22;10400;53.198;6.592;2022-09-09T15:01:54;20.30;99.90
20483;DHT22;10400;53.198;6.592;2022-09-09T15:04:19;20.30;99.90
20483;DHT22;10400;53.198;6.592;2022-09-09T15:06:46;20.10;99.90
20483;DHT22;10400;53.198;6.592;2022-09-09T15:09:14;20.10;99.90
20483;DHT22;10400;53.198;6.592;2022-09-09T15:11:40;20.30;99.90
20483;DHT22;10400;53.198;6.592;2022-09-09T15:14:07;20.50;99.90
20483;DHT22;10400;53.198;6.592;2022-09-09T15:16:34;20.70;99.90
20483;DHT22;10400;53.198;6.592;2022-09-09T15:19:01;20.80;99.90
20483;DHT22;10400;53.198;6.592;2022-09-09T15:21:29;20.80;99.90
20483;DHT22;10400;53.198;6.592;2022-09-09T15:23:55;20.60;99.90
20483;DHT22;10400;53.198;6.592;2022-09-09T15:26:22;20.70;99.90
20483;DHT22;10400;53.198;6.592;2022-09-09T15:28:48;20.70;99.90
20483;DHT22;10400;53.198;6.592;2022-09-09T15:31:23;20.70;99.90
20483;DHT22;10400;53.198;6.592;2022-09-09T15:34:00;20.60;99.90
20483;DHT22;10400;53.198;6.592;2022-09-09T15:38:58;20.60;99.90
20483;DHT22;10400;53.198;6.592;2022-09-09T15:41:24;20.80;99.90
20483;DHT22;10400;53.198;6.592;2022-09-09T15:43:52;20.80;99.90
20483;DHT22;10400;53.198;6.592;2022-09-09T15:46:34;20.80;99.90
20483;DHT22;10400;53.198;6.592;2022-09-09T15:49:27;20.80;99.90
20483;DHT22;10400;53.198;6.592;2022-09-09T15:51:58;20.60;99.90
20483;DHT22;10400;53.198;6.592;2022-09-09T15:54:27;20.60;99.90
20483;DHT22;10400;53.198;6.592;2022-09-09T15:56:58;20.70;99.90
20483;DHT22;10400;53.198;6.592;2022-09-09T15:59:27;20.60;99.90
20483;DHT22;10400;53.198;6.592;2022-09-09T16:01:56;20.60;99.90
20483;DHT22;10400;53.198;6.592;2022-09-09T16:04:23;20.50;99.90
20483;DHT22;10400;53.198;6.592;2022-09-09T16:06:51;20.50;99.90
20483;DHT22;10400;53.198;6.592;2022-09-09T16:09:17;20.40;99.90
20483;DHT22;10400;53.198;6.592;2022-09-09T16:11:42;20.30;99.90
20483;DHT22;10400;53.198;6.592;2022-09-09T16:14:08;20.40;99.90
20483;DHT22;10400;53.198;6.592;2022-09-09T16:16:35;20.40;99.90
20483;DHT22;10400;53.198;6.592;2022-09-09T16:19:04;20.40;99.90
20483;DHT22;10400;53.198;6.592;2022-09-09T16:21:36;20.40;99.90
20483;DHT22;10400;53.198;6.592;2022-09-09T16:24:04;20.30;99.90
20483;DHT22;10400;53.198;6.592;2022-09-09T16:26:32;20.40;99.90
20483;DHT22;10400;53.198;6.592;2022-09-09T16:28:59;20.40;99.90
20483;DHT22;10400;53.198;6.592;2022-09-09T16:31:26;20.40;99.90
20483;DHT22;10400;53.198;6.592;2022-09-09T16:33:52;20.30;99.90
20483;DHT22;10400;53.198;6.592;2022-09-09T16:36:21;20.30;99.90
20483;DHT22;10400;53.198;6.592;2022-09-09T16:38:47;20.20;99.90
20483;DHT22;10400;53.198;6.592;2022-09-09T16:41:13;20.00;99.90
20483;DHT22;10400;53.198;6.592;2022-09-09T16:43:40;19.80;99.90
20483;DHT22;10400;53.198;6.592;2022-09-09T16:46:14;19.70;99.90
20483;DHT22;10400;53.198;6.592;2022-09-09T16:48:42;19.60;99.90
20483;DHT22;10400;53.198;6.592;2022-09-09T16:53:42;19.50;99.90
20483;DHT22;10400;53.198;6.592;2022-09-09T16:56:10;19.30;99.90
20483;DHT22;10400;53.198;6.592;2022-09-09T16:58:35;19.30;99.90
20483;DHT22;10400;53.198;6.592;2022-09-09T17:01:02;19.20;99.90
20483;DHT22;10400;53.198;6.592;2022-09-09T17:03:29;19.20;99.90
20483;DHT22;10400;53.198;6.592;2022-09-09T17:05:56;19.10;99.90
20483;DHT22;10400;53.198;6.592;2022-09-09T17:08:23;19.00;99.90
20483;DHT22;10400;53.198;6.592;2022-09-09T17:10:49;19.00;99.90
20483;DHT22;10400;53.198;6.592;2022-09-09T17:13:15;19.00;99.90
20483;DHT22;10400;53.198;6.592;2022-09-09T17:15:42;19.00;99.90
20483;DHT22;10400;53.198;6.592;2022-09-09T17:18:12;18.90;99.90
20483;DHT22;10400;53.198;6.592;2022-09-09T17:20:39;18.80;99.90
20483;DHT22;10400;53.198;6.592;2022-09-09T17:23:09;18.80;99.90
20483;DHT22;10400;53.198;6.592;2022-09-09T17:25:35;18.80;99.90
20483;DHT22;10400;53.198;6.592;2022-09-09T17:28:02;18.80;99.90
20483;DHT22;10400;53.198;6.592;2022-09-09T17:30:33;18.70;99.90
20483;DHT22;10400;53.198;6.592;2022-09-09T17:32:59;18.70;99.90
20483;DHT22;10400;53.198;6.592;2022-09-09T17:35:25;18.70;99.90
20483;DHT22;10400;53.198;6.592;2022-09-09T17:37:53;18.70;99.90
20483;DHT22;10400;53.198;6.592;2022-09-09T17:40:20;18.70;99.90
20483;DHT22;10400;53.198;6.592;2022-09-09T17:42:45;18.60;99.90
20483;DHT22;10400;53.198;6.592;2022-09-09T17:45:12;18.60;99.90
20483;DHT22;10400;53.198;6.592;2022-09-09T17:47:38;18.60;99.90
20483;DHT22;10400;53.198;6.592;2022-09-09T17:50:05;18.60;99.90
20483;DHT22;10400;53.198;6.592;2022-09-09T17:52:32;18.50;99.90
20483;DHT22;10400;53.198;6.592;2022-09-09T17:54:58;18.50;99.90
20483;DHT22;10400;53.198;6.592;2022-09-09T17:57:23;18.50;99.90
20483;DHT22;10400;53.198;6.592;2022-09-09T17:59:50;18.40;99.90
20483;DHT22;10400;53.198;6.592;2022-09-09T18:02:15;18.40;99.90
20483;DHT22;10400;53.198;6.592;2022-09-09T18:04:41;18.40;99.90
20483;DHT22;10400;53.198;6.592;2022-09-09T18:07:07;18.40;99.90
20483;DHT22;10400;53.198;6.592;2022-09-09T18:09:33;18.40;99.90
20483;DHT22;10400;53.198;6.592;2022-09-09T18:11:59;18.40;99.90
20483;DHT22;10400;53.198;6.592;2022-09-09T18:14:28;18.40;99.90